Detall de PIREP

Printer-friendly versionPDF version

[2008/11/30 10:19:00]
Flight IATA:CT3202
Pilot Number:011
Company ICAO:CAT
Aircraft Type:F28/A
PAX:85
Departing Airport: LEPA
Destination Airport: LGAV
Alternate Airport:LGTS
Online: VATSIM
Route:MORSS UM603 MOKTO UM872 LATAN UL869 EKVIS UL612 ARA UB34 NEMES
Flight Level:FL350
No Slew and time accel
No pause
Crash detect
Detect pilot in Cockpit between each 30 and 45 minutes
10:19 Zero fuel Weight: 55786 Lbs, Fuel Weight: 17125 Lbs
10:19 VATSIM:LEPA 301000Z 20014KT 9999 RA FEW030 BKN050 12/03 Q1003 NOSIG
10:19 VATSIM:LGAV 300950Z 21005KT 160V230 9999 FEW020 17/10 Q1021 NOSIG
10:21 Parking Brakes off
10:35 Take-off
10:35 Take off Weight: 72243 Lbs
10:35 Wind: 202 @ 014 Knots Heading: 234
10:35 POS N39 32 51 E002 44 44
10:35 Flaps:2 at 169 Knots
10:35 Gear Up: 169 Knots
10:35 Flaps:1 at 236 Knots
10:35 Flaps:0 at 246 Knots
10:50 Wind:230@032 Knots Headi
ng: 057 Ground Speed: 377 Knots Altitude 22591 ft
11:01 TOC
11:01 Fuel Weight: 13584 Lb
11:05 Wind:225@036 Knots Heading: 079 Ground Speed: 428 Knots Altitude 34685 ft
11:20 Wind:200@084 Knots Heading: 087 Ground Speed: 477 Knots Altitude 34793 ft
11:35 Wind:197@041 Knots Heading: 090 Ground Speed: 454 Knots Altitude 34773 ft
11:50 Wind:177@025 Knots Heading: 090 Ground Speed: 438 Knots Altitude 34895 ft
12:55 TOD
12:55 Fuel Weight: 6548 Lb
13:05 Wind:293@000 Knots Heading: 114 Ground Speed: 335 Knots Altitude 17267 ft
13:20 Wind:206@009 Knots Heading: 086 Ground Speed: 269 Knots Altitude 4996 ft
13:20 Gear Down: 250 Knots
13:30 Flaps:1 at 199 Knots
13:31 Flaps:2 at 177 Knots
13:31 Flaps:3 at 170 Knots
13:32 Flaps:4 at 155 Knots
13:32 Flaps:5 at 152 Knots
13:33 TouchDown:Rate -265 ft/min Speed: 114 Knots
13:34 VATSIM:LGAV 301250Z 20006KT 170V240
9999 FEW020 BKN180 18/09 Q1020 NOSIG
13:34 Land
13:34 Wind:198@006 Knots
13:34 Heading: 215
13:34 Flight Duration: 02:59
13:34 Landing Weight: 60477 Lbs
13:34 POS N37 56 17 E023 56 04
13:43 Parking brakes on
13:43 Block to Block Duration: 03:22
13:43 Final Fuel: 4431 Lbls
13:43 Spent Fuel: 12694 Lbls
13:43 Flight Length: 132 NM
13:43 TOD Land Length: 30 NM

Exportar CSV

Powered by Drupal - Modified by Danger4k